sensor_id;sensor_type;location;lat;lon;timestamp;P1;durP1;ratioP1;P2;durP2;ratioP2
46463;SDS011;32161;48.148;-1.554;2023-07-31T00:00:30;15.65;;;5.80;;
46463;SDS011;32161;48.148;-1.554;2023-07-31T00:02:59;15.52;;;5.95;;
46463;SDS011;32161;48.148;-1.554;2023-07-31T00:05:26;15.85;;;6.00;;
46463;SDS011;32161;48.148;-1.554;2023-07-31T00:07:54;16.60;;;5.25;;
46463;SDS011;32161;48.148;-1.554;2023-07-31T00:10:22;16.50;;;5.57;;
46463;SDS011;32161;48.148;-1.554;2023-07-31T00:12:49;13.38;;;5.55;;
46463;SDS011;32161;48.148;-1.554;2023-07-31T00:15:17;12.00;;;5.57;;
46463;SDS011;32161;48.148;-1.554;2023-07-31T00:17:44;20.30;;;5.75;;
46463;SDS011;32161;48.148;-1.554;2023-07-31T00:20:14;15.35;;;6.13;;
46463;SDS011;32161;48.148;-1.554;2023-07-31T00:22:41;14.35;;;5.75;;
46463;SDS011;32161;48.148;-1.554;2023-07-31T00:25:09;19.98;;;6.88;;
46463;SDS011;32161;48.148;-1.554;2023-07-31T00:27:36;17.65;;;5.72;;
46463;SDS011;32161;48.148;-1.554;2023-07-31T00:30:04;17.10;;;6.18;;
46463;SDS011;32161;48.148;-1.554;2023-07-31T00:32:33;14.93;;;5.63;;
46463;SDS011;32161;48.148;-1.554;2023-07-31T00:35:00;14.80;;;5.72;;
46463;SDS011;32161;48.148;-1.554;2023-07-31T00:37:30;16.48;;;5.40;;
46463;SDS011;32161;48.148;-1.554;2023-07-31T00:39:57;17.67;;;5.28;;
46463;SDS011;32161;48.148;-1.554;2023-07-31T00:42:25;14.23;;;6.40;;
46463;SDS011;32161;48.148;-1.554;2023-07-31T00:44:53;14.23;;;5.88;;
46463;SDS011;32161;48.148;-1.554;2023-07-31T00:47:20;16.92;;;5.80;;
46463;SDS011;32161;48.148;-1.554;2023-07-31T00:49:48;19.65;;;5.95;;
46463;SDS011;32161;48.148;-1.554;2023-07-31T00:52:15;21.67;;;5.88;;
46463;SDS011;32161;48.148;-1.554;2023-07-31T00:54:45;15.55;;;5.78;;
46463;SDS011;32161;48.148;-1.554;2023-07-31T00:57:13;14.80;;;5.70;;
46463;SDS011;32161;48.148;-1.554;2023-07-31T00:59:40;18.23;;;6.18;;
46463;SDS011;32161;48.148;-1.554;2023-07-31T01:02:08;18.00;;;6.03;;
46463;SDS011;32161;48.148;-1.554;2023-07-31T01:04:35;11.18;;;5.30;;
46463;SDS011;32161;48.148;-1.554;2023-07-31T01:07:06;16.40;;;6.22;;
46463;SDS011;32161;48.148;-1.554;2023-07-31T01:09:40;18.08;;;5.68;;
46463;SDS011;32161;48.148;-1.554;2023-07-31T01:12:15;15.63;;;5.93;;
46463;SDS011;32161;48.148;-1.554;2023-07-31T01:14:51;15.30;;;5.55;;
46463;SDS011;32161;48.148;-1.554;2023-07-31T01:17:28;14.52;;;6.05;;
46463;SDS011;32161;48.148;-1.554;2023-07-31T01:19:55;16.08;;;5.78;;
46463;SDS011;32161;48.148;-1.554;2023-07-31T01:22:43;11.63;;;5.68;;
46463;SDS011;32161;48.148;-1.554;2023-07-31T01:25:58;18.17;;;6.00;;
46463;SDS011;32161;48.148;-1.554;2023-07-31T01:28:37;21.33;;;6.78;;
46463;SDS011;32161;48.148;-1.554;2023-07-31T01:31:18;15.68;;;6.50;;
46463;SDS011;32161;48.148;-1.554;2023-07-31T01:33:50;16.85;;;5.63;;
46463;SDS011;32161;48.148;-1.554;2023-07-31T01:36:22;13.65;;;5.85;;
46463;SDS011;32161;48.148;-1.554;2023-07-31T01:38:51;18.35;;;5.53;;
46463;SDS011;32161;48.148;-1.554;2023-07-31T01:41:20;13.38;;;6.20;;
46463;SDS011;32161;48.148;-1.554;2023-07-31T01:43:48;15.95;;;5.07;;
46463;SDS011;32161;48.148;-1.554;2023-07-31T01:46:15;14.70;;;5.57;;
46463;SDS011;32161;48.148;-1.554;2023-07-31T01:48:43;19.40;;;6.30;;
46463;SDS011;32161;48.148;-1.554;2023-07-31T01:51:10;15.77;;;5.43;;
46463;SDS011;32161;48.148;-1.554;2023-07-31T01:53:38;15.07;;;5.57;;
46463;SDS011;32161;48.148;-1.554;2023-07-31T01:56:06;13.00;;;5.78;;
46463;SDS011;32161;48.148;-1.554;2023-07-31T01:58:35;18.10;;;5.57;;
46463;SDS011;32161;48.148;-1.554;2023-07-31T02:01:02;17.23;;;6.38;;
46463;SDS011;32161;48.148;-1.554;2023-07-31T02:03:30;15.30;;;5.63;;
46463;SDS011;32161;48.148;-1.554;2023-07-31T02:05:57;12.45;;;5.68;;
46463;SDS011;32161;48.148;-1.554;2023-07-31T02:08:25;13.85;;;5.50;;
46463;SDS011;32161;48.148;-1.554;2023-07-31T02:10:53;11.98;;;5.90;;
46463;SDS011;32161;48.148;-1.554;2023-07-31T02:13:21;15.80;;;5.15;;
46463;SDS011;32161;48.148;-1.554;2023-07-31T02:15:49;15.15;;;6.38;;
46463;SDS011;32161;48.148;-1.554;2023-07-31T02:18:17;13.13;;;6.10;;
46463;SDS011;32161;48.148;-1.554;2023-07-31T02:20:48;18.38;;;6.53;;
46463;SDS011;32161;48.148;-1.554;2023-07-31T02:23:16;13.68;;;5.53;;
46463;SDS011;32161;48.148;-1.554;2023-07-31T02:25:44;13.57;;;5.95;;
46463;SDS011;32161;48.148;-1.554;2023-07-31T02:28:12;16.88;;;5.63;;
46463;SDS011;32161;48.148;-1.554;2023-07-31T02:30:40;13.75;;;5.60;;
46463;SDS011;32161;48.148;-1.554;2023-07-31T02:33:12;17.92;;;5.88;;
46463;SDS011;32161;48.148;-1.554;2023-07-31T02:35:40;15.10;;;5.40;;
46463;SDS011;32161;48.148;-1.554;2023-07-31T02:38:08;16.35;;;5.60;;
46463;SDS011;32161;48.148;-1.554;2023-07-31T02:40:35;12.43;;;5.32;;
46463;SDS011;32161;48.148;-1.554;2023-07-31T02:43:03;15.15;;;5.95;;
46463;SDS011;32161;48.148;-1.554;2023-07-31T02:45:30;15.65;;;5.90;;
46463;SDS011;32161;48.148;-1.554;2023-07-31T02:47:58;12.93;;;5.45;;
46463;SDS011;32161;48.148;-1.554;2023-07-31T02:50:27;12.30;;;6.20;;
46463;SDS011;32161;48.148;-1.554;2023-07-31T02:52:54;14.90;;;5.72;;
46463;SDS011;32161;48.148;-1.554;2023-07-31T02:55:22;18.83;;;5.63;;
46463;SDS011;32161;48.148;-1.554;2023-07-31T02:57:50;17.77;;;6.43;;
46463;SDS011;32161;48.148;-1.554;2023-07-31T03:00:18;16.48;;;5.82;;
46463;SDS011;32161;48.148;-1.554;2023-07-31T03:02:45;14.45;;;5.68;;
46463;SDS011;32161;48.148;-1.554;2023-07-31T03:05:13;11.55;;;5.40;;
46463;SDS011;32161;48.148;-1.554;2023-07-31T03:07:42;11.85;;;5.10;;
46463;SDS011;32161;48.148;-1.554;2023-07-31T03:10:09;16.20;;;6.40;;
46463;SDS011;32161;48.148;-1.554;2023-07-31T03:12:37;16.38;;;5.57;;
46463;SDS011;32161;48.148;-1.554;2023-07-31T03:15:05;15.00;;;5.22;;
46463;SDS011;32161;48.148;-1.554;2023-07-31T03:17:34;13.35;;;4.47;;
46463;SDS011;32161;48.148;-1.554;2023-07-31T03:20:01;11.85;;;4.50;;
46463;SDS011;32161;48.148;-1.554;2023-07-31T03:22:30;14.07;;;6.10;;
46463;SDS011;32161;48.148;-1.554;2023-07-31T03:25:01;12.40;;;5.13;;
46463;SDS011;32161;48.148;-1.554;2023-07-31T03:27:29;18.02;;;4.90;;
46463;SDS011;32161;48.148;-1.554;2023-07-31T03:29:56;13.00;;;5.60;;
46463;SDS011;32161;48.148;-1.554;2023-07-31T03:32:24;16.50;;;4.85;;
46463;SDS011;32161;48.148;-1.554;2023-07-31T03:34:51;15.27;;;5.28;;
46463;SDS011;32161;48.148;-1.554;2023-07-31T03:37:19;14.80;;;5.93;;
46463;SDS011;32161;48.148;-1.554;2023-07-31T03:39:46;12.70;;;5.68;;
46463;SDS011;32161;48.148;-1.554;2023-07-31T03:42:15;15.55;;;6.20;;
46463;SDS011;32161;48.148;-1.554;2023-07-31T03:44:43;10.40;;;4.88;;
46463;SDS011;32161;48.148;-1.554;2023-07-31T03:47:11;13.48;;;4.85;;
46463;SDS011;32161;48.148;-1.554;2023-07-31T03:49:38;12.93;;;5.07;;
46463;SDS011;32161;48.148;-1.554;2023-07-31T03:52:06;14.90;;;5.38;;
46463;SDS011;32161;48.148;-1.554;2023-07-31T03:54:34;12.32;;;4.82;;
46463;SDS011;32161;48.148;-1.554;2023-07-31T03:57:01;14.55;;;5.78;;
46463;SDS011;32161;48.148;-1.554;2023-07-31T03:59:31;18.13;;;5.43;;
46463;SDS011;32161;48.148;-1.554;2023-07-31T04:01:58;15.38;;;5.25;;
46463;SDS011;32161;48.148;-1.554;2023-07-31T04:04:26;13.65;;;4.90;;
46463;SDS011;32161;48.148;-1.554;2023-07-31T04:06:53;15.43;;;4.82;;
46463;SDS011;32161;48.148;-1.554;2023-07-31T04:09:21;11.98;;;4.53;;
46463;SDS011;32161;48.148;-1.554;2023-07-31T04:11:48;13.52;;;5.57;;
46463;SDS011;32161;48.148;-1.554;2023-07-31T04:14:16;13.02;;;5.03;;
46463;SDS011;32161;48.148;-1.554;2023-07-31T04:16:45;19.15;;;4.50;;
46463;SDS011;32161;48.148;-1.554;2023-07-31T04:19:12;13.52;;;4.78;;
46463;SDS011;32161;48.148;-1.554;2023-07-31T04:21:41;15.68;;;5.10;;
46463;SDS011;32161;48.148;-1.554;2023-07-31T04:24:09;11.35;;;5.47;;
46463;SDS011;32161;48.148;-1.554;2023-07-31T04:26:36;13.40;;;5.07;;
46463;SDS011;32161;48.148;-1.554;2023-07-31T04:29:04;12.85;;;4.40;;
46463;SDS011;32161;48.148;-1.554;2023-07-31T04:31:33;16.50;;;5.03;;
46463;SDS011;32161;48.148;-1.554;2023-07-31T04:34:02;15.25;;;5.05;;
46463;SDS011;32161;48.148;-1.554;2023-07-31T04:36:30;14.60;;;5.40;;
46463;SDS011;32161;48.148;-1.554;2023-07-31T04:38:58;12.57;;;4.53;;
46463;SDS011;32161;48.148;-1.554;2023-07-31T04:41:25;13.30;;;4.80;;
46463;SDS011;32161;48.148;-1.554;2023-07-31T04:43:53;16.65;;;5.90;;
46463;SDS011;32161;48.148;-1.554;2023-07-31T04:46:20;15.93;;;5.90;;
46463;SDS011;32161;48.148;-1.554;2023-07-31T04:48:48;10.30;;;5.50;;
46463;SDS011;32161;48.148;-1.554;2023-07-31T04:51:17;14.07;;;5.35;;
46463;SDS011;32161;48.148;-1.554;2023-07-31T04:53:46;17.00;;;5.07;;
46463;SDS011;32161;48.148;-1.554;2023-07-31T04:56:13;13.30;;;5.18;;
46463;SDS011;32161;48.148;-1.554;2023-07-31T04:58:42;12.93;;;5.10;;
46463;SDS011;32161;48.148;-1.554;2023-07-31T05:01:09;9.57;;;4.90;;
46463;SDS011;32161;48.148;-1.554;2023-07-31T05:03:37;12.27;;;4.90;;
46463;SDS011;32161;48.148;-1.554;2023-07-31T05:06:04;16.05;;;4.88;;
46463;SDS011;32161;48.148;-1.554;2023-07-31T05:08:33;12.82;;;5.18;;
46463;SDS011;32161;48.148;-1.554;2023-07-31T05:11:01;18.95;;;5.72;;
46463;SDS011;32161;48.148;-1.554;2023-07-31T05:13:29;13.23;;;5.65;;
46463;SDS011;32161;48.148;-1.554;2023-07-31T05:15:56;23.15;;;5.63;;
46463;SDS011;32161;48.148;-1.554;2023-07-31T05:18:24;15.35;;;5.10;;
46463;SDS011;32161;48.148;-1.554;2023-07-31T05:20:52;10.05;;;4.30;;
46463;SDS011;32161;48.148;-1.554;2023-07-31T05:23:19;11.25;;;4.85;;
46463;SDS011;32161;48.148;-1.554;2023-07-31T05:25:48;14.32;;;5.30;;
46463;SDS011;32161;48.148;-1.554;2023-07-31T05:28:15;14.90;;;5.22;;
46463;SDS011;32161;48.148;-1.554;2023-07-31T05:30:43;10.80;;;4.53;;
46463;SDS011;32161;48.148;-1.554;2023-07-31T05:33:10;10.98;;;4.80;;
46463;SDS011;32161;48.148;-1.554;2023-07-31T05:35:38;11.70;;;4.60;;
46463;SDS011;32161;48.148;-1.554;2023-07-31T05:38:05;11.23;;;4.63;;
46463;SDS011;32161;48.148;-1.554;2023-07-31T05:40:33;14.63;;;5.00;;
46463;SDS011;32161;48.148;-1.554;2023-07-31T05:43:02;16.08;;;6.20;;
46463;SDS011;32161;48.148;-1.554;2023-07-31T05:45:31;11.48;;;4.40;;
46463;SDS011;32161;48.148;-1.554;2023-07-31T05:47:59;13.30;;;5.25;;
46463;SDS011;32161;48.148;-1.554;2023-07-31T05:50:26;11.07;;;4.68;;
46463;SDS011;32161;48.148;-1.554;2023-07-31T05:52:54;12.55;;;4.10;;
46463;SDS011;32161;48.148;-1.554;2023-07-31T05:55:21;9.18;;;4.40;;
46463;SDS011;32161;48.148;-1.554;2023-07-31T05:57:51;14.05;;;5.30;;
46463;SDS011;32161;48.148;-1.554;2023-07-31T06:00:21;12.93;;;4.35;;
46463;SDS011;32161;48.148;-1.554;2023-07-31T06:02:48;9.95;;;4.28;;
46463;SDS011;32161;48.148;-1.554;2023-07-31T06:05:16;12.35;;;4.30;;
46463;SDS011;32161;48.148;-1.554;2023-07-31T06:07:43;11.27;;;4.07;;
46463;SDS011;32161;48.148;-1.554;2023-07-31T06:10:11;12.65;;;3.70;;
46463;SDS011;32161;48.148;-1.554;2023-07-31T06:12:39;11.13;;;3.88;;
46463;SDS011;32161;48.148;-1.554;2023-07-31T06:15:06;12.60;;;3.95;;
46463;SDS011;32161;48.148;-1.554;2023-07-31T06:17:36;10.68;;;4.07;;
46463;SDS011;32161;48.148;-1.554;2023-07-31T06:20:04;16.10;;;4.55;;
46463;SDS011;32161;48.148;-1.554;2023-07-31T06:22:33;13.48;;;4.70;;
46463;SDS011;32161;48.148;-1.554;2023-07-31T06:25:01;8.15;;;4.00;;
46463;SDS011;32161;48.148;-1.554;2023-07-31T06:27:29;9.57;;;3.83;;
46463;SDS011;32161;48.148;-1.554;2023-07-31T06:29:57;7.80;;;3.30;;
46463;SDS011;32161;48.148;-1.554;2023-07-31T06:32:24;9.82;;;3.80;;
46463;SDS011;32161;48.148;-1.554;2023-07-31T06:34:53;9.85;;;3.58;;
46463;SDS011;32161;48.148;-1.554;2023-07-31T06:37:21;9.55;;;3.75;;
46463;SDS011;32161;48.148;-1.554;2023-07-31T06:39:48;7.03;;;3.35;;
46463;SDS011;32161;48.148;-1.554;2023-07-31T06:42:16;11.00;;;3.42;;
46463;SDS011;32161;48.148;-1.554;2023-07-31T06:44:43;6.95;;;3.45;;
46463;SDS011;32161;48.148;-1.554;2023-07-31T06:47:11;9.85;;;3.30;;
46463;SDS011;32161;48.148;-1.554;2023-07-31T06:49:38;11.68;;;3.65;;
46463;SDS011;32161;48.148;-1.554;2023-07-31T06:52:07;4.82;;;2.72;;
46463;SDS011;32161;48.148;-1.554;2023-07-31T06:54:36;6.72;;;3.50;;
46463;SDS011;32161;48.148;-1.554;2023-07-31T06:57:04;8.73;;;3.35;;
46463;SDS011;32161;48.148;-1.554;2023-07-31T06:59:32;11.88;;;3.42;;
46463;SDS011;32161;48.148;-1.554;2023-07-31T07:01:59;10.77;;;3.13;;
46463;SDS011;32161;48.148;-1.554;2023-07-31T07:04:27;9.15;;;3.10;;
46463;SDS011;32161;48.148;-1.554;2023-07-31T07:06:54;12.18;;;3.35;;
46463;SDS011;32161;48.148;-1.554;2023-07-31T07:09:23;8.90;;;3.30;;
46463;SDS011;32161;48.148;-1.554;2023-07-31T07:11:51;9.40;;;3.55;;
46463;SDS011;32161;48.148;-1.554;2023-07-31T07:14:18;10.32;;;3.67;;
46463;SDS011;32161;48.148;-1.554;2023-07-31T07:16:50;10.85;;;3.53;;
46463;SDS011;32161;48.148;-1.554;2023-07-31T07:19:17;9.18;;;3.60;;
46463;SDS011;32161;48.148;-1.554;2023-07-31T07:21:45;12.02;;;4.20;;
46463;SDS011;32161;48.148;-1.554;2023-07-31T07:24:12;7.95;;;3.30;;
46463;SDS011;32161;48.148;-1.554;2023-07-31T07:26:41;13.23;;;3.55;;
46463;SDS011;32161;48.148;-1.554;2023-07-31T07:29:09;10.73;;;2.88;;
46463;SDS011;32161;48.148;-1.554;2023-07-31T07:31:37;8.30;;;3.10;;
46463;SDS011;32161;48.148;-1.554;2023-07-31T07:34:04;8.30;;;3.40;;
46463;SDS011;32161;48.148;-1.554;2023-07-31T07:36:32;7.10;;;3.78;;
46463;SDS011;32161;48.148;-1.554;2023-07-31T07:38:59;5.88;;;3.22;;
46463;SDS011;32161;48.148;-1.554;2023-07-31T07:41:27;12.18;;;3.33;;
46463;SDS011;32161;48.148;-1.554;2023-07-31T07:43:56;15.35;;;3.40;;
46463;SDS011;32161;48.148;-1.554;2023-07-31T07:46:23;6.35;;;2.80;;
46463;SDS011;32161;48.148;-1.554;2023-07-31T07:48:51;8.70;;;2.90;;
46463;SDS011;32161;48.148;-1.554;2023-07-31T07:51:18;9.85;;;3.45;;
46463;SDS011;32161;48.148;-1.554;2023-07-31T07:53:46;9.50;;;2.97;;
46463;SDS011;32161;48.148;-1.554;2023-07-31T07:56:13;6.07;;;2.47;;
46463;SDS011;32161;48.148;-1.554;2023-07-31T07:58:41;6.63;;;2.72;;
46463;SDS011;32161;48.148;-1.554;2023-07-31T08:01:10;11.57;;;3.00;;
46463;SDS011;32161;48.148;-1.554;2023-07-31T08:03:37;5.05;;;2.33;;
46463;SDS011;32161;48.148;-1.554;2023-07-31T08:06:05;7.07;;;2.70;;
46463;SDS011;32161;48.148;-1.554;2023-07-31T08:08:34;7.43;;;2.40;;
46463;SDS011;32161;48.148;-1.554;2023-07-31T08:11:01;7.40;;;2.90;;
46463;SDS011;32161;48.148;-1.554;2023-07-31T08:13:29;9.77;;;2.80;;
46463;SDS011;32161;48.148;-1.554;2023-07-31T08:15:57;9.15;;;2.60;;
46463;SDS011;32161;48.148;-1.554;2023-07-31T08:18:26;9.40;;;3.10;;
46463;SDS011;32161;48.148;-1.554;2023-07-31T08:20:53;14.75;;;2.85;;
46463;SDS011;32161;48.148;-1.554;2023-07-31T08:23:21;10.60;;;3.00;;
46463;SDS011;32161;48.148;-1.554;2023-07-31T08:25:49;8.63;;;2.92;;
46463;SDS011;32161;48.148;-1.554;2023-07-31T08:28:17;15.38;;;2.75;;
46463;SDS011;32161;48.148;-1.554;2023-07-31T08:30:45;6.13;;;2.50;;
46463;SDS011;32161;48.148;-1.554;2023-07-31T08:33:12;9.13;;;2.58;;
46463;SDS011;32161;48.148;-1.554;2023-07-31T08:35:41;6.25;;;2.50;;
46463;SDS011;32161;48.148;-1.554;2023-07-31T08:38:09;7.80;;;2.60;;
46463;SDS011;32161;48.148;-1.554;2023-07-31T08:40:36;7.00;;;2.60;;
46463;SDS011;32161;48.148;-1.554;2023-07-31T08:43:04;5.20;;;2.20;;
46463;SDS011;32161;48.148;-1.554;2023-07-31T08:45:31;6.88;;;2.50;;
46463;SDS011;32161;48.148;-1.554;2023-07-31T08:48:00;8.65;;;2.47;;
46463;SDS011;32161;48.148;-1.554;2023-07-31T08:50:28;5.03;;;1.85;;
46463;SDS011;32161;48.148;-1.554;2023-07-31T08:52:57;6.97;;;2.17;;
46463;SDS011;32161;48.148;-1.554;2023-07-31T08:55:24;7.55;;;2.25;;
46463;SDS011;32161;48.148;-1.554;2023-07-31T08:57:53;3.65;;;1.60;;
46463;SDS011;32161;48.148;-1.554;2023-07-31T09:00:22;6.72;;;1.65;;
46463;SDS011;32161;48.148;-1.554;2023-07-31T09:02:52;1.95;;;1.73;;
46463;SDS011;32161;48.148;-1.554;2023-07-31T09:05:28;4.07;;;2.10;;
46463;SDS011;32161;48.148;-1.554;2023-07-31T09:07:58;4.13;;;1.77;;
46463;SDS011;32161;48.148;-1.554;2023-07-31T09:12:55;4.82;;;1.75;;
46463;SDS011;32161;48.148;-1.554;2023-07-31T09:15:24;4.07;;;2.00;;
46463;SDS011;32161;48.148;-1.554;2023-07-31T09:17:58;5.50;;;2.03;;
46463;SDS011;32161;48.148;-1.554;2023-07-31T09:20:27;3.70;;;1.60;;
46463;SDS011;32161;48.148;-1.554;2023-07-31T09:22:55;3.00;;;1.95;;
46463;SDS011;32161;48.148;-1.554;2023-07-31T09:25:32;2.58;;;1.67;;
46463;SDS011;32161;48.148;-1.554;2023-07-31T09:28:01;4.75;;;1.67;;
46463;SDS011;32161;48.148;-1.554;2023-07-31T09:30:30;8.23;;;2.25;;
46463;SDS011;32161;48.148;-1.554;2023-07-31T09:33:11;4.93;;;1.98;;
46463;SDS011;32161;48.148;-1.554;2023-07-31T09:35:38;4.75;;;2.30;;
46463;SDS011;32161;48.148;-1.554;2023-07-31T09:38:07;3.65;;;2.00;;
46463;SDS011;32161;48.148;-1.554;2023-07-31T09:40:39;3.57;;;2.00;;
46463;SDS011;32161;48.148;-1.554;2023-07-31T09:43:09;7.60;;;2.50;;
46463;SDS011;32161;48.148;-1.554;2023-07-31T09:45:39;6.15;;;2.28;;
46463;SDS011;32161;48.148;-1.554;2023-07-31T09:48:09;3.88;;;2.28;;
46463;SDS011;32161;48.148;-1.554;2023-07-31T09:50:44;2.35;;;1.88;;
46463;SDS011;32161;48.148;-1.554;2023-07-31T09:53:13;6.55;;;2.95;;
46463;SDS011;32161;48.148;-1.554;2023-07-31T09:55:44;4.13;;;2.70;;
46463;SDS011;32161;48.148;-1.554;2023-07-31T09:58:12;4.70;;;2.80;;
46463;SDS011;32161;48.148;-1.554;2023-07-31T10:00:39;5.07;;;2.72;;
46463;SDS011;32161;48.148;-1.554;2023-07-31T10:03:08;7.88;;;2.92;;
46463;SDS011;32161;48.148;-1.554;2023-07-31T10:05:38;6.88;;;3.00;;
46463;SDS011;32161;48.148;-1.554;2023-07-31T10:08:09;11.20;;;3.30;;
46463;SDS011;32161;48.148;-1.554;2023-07-31T10:10:40;5.30;;;3.00;;
46463;SDS011;32161;48.148;-1.554;2023-07-31T10:13:11;5.30;;;3.13;;
46463;SDS011;32161;48.148;-1.554;2023-07-31T10:15:40;9.73;;;3.40;;
46463;SDS011;32161;48.148;-1.554;2023-07-31T10:18:08;7.25;;;3.92;;
46463;SDS011;32161;48.148;-1.554;2023-07-31T10:20:37;6.18;;;3.45;;
46463;SDS011;32161;48.148;-1.554;2023-07-31T10:23:05;6.30;;;3.17;;
46463;SDS011;32161;48.148;-1.554;2023-07-31T10:25:33;15.63;;;3.58;;
46463;SDS011;32161;48.148;-1.554;2023-07-31T10:28:03;7.00;;;3.15;;
46463;SDS011;32161;48.148;-1.554;2023-07-31T10:30:31;5.88;;;3.33;;
46463;SDS011;32161;48.148;-1.554;2023-07-31T10:33:03;6.38;;;3.53;;
46463;SDS011;32161;48.148;-1.554;2023-07-31T10:35:32;10.07;;;3.47;;
46463;SDS011;32161;48.148;-1.554;2023-07-31T10:38:09;5.05;;;3.08;;
46463;SDS011;32161;48.148;-1.554;2023-07-31T10:40:38;5.05;;;2.80;;
46463;SDS011;32161;48.148;-1.554;2023-07-31T10:43:08;5.20;;;2.92;;
46463;SDS011;32161;48.148;-1.554;2023-07-31T10:45:37;6.47;;;3.35;;
46463;SDS011;32161;48.148;-1.554;2023-07-31T10:48:06;9.32;;;3.25;;
46463;SDS011;32161;48.148;-1.554;2023-07-31T10:50:45;9.68;;;4.50;;
46463;SDS011;32161;48.148;-1.554;2023-07-31T10:53:22;7.80;;;3.55;;
46463;SDS011;32161;48.148;-1.554;2023-07-31T10:55:50;7.68;;;3.55;;
46463;SDS011;32161;48.148;-1.554;2023-07-31T10:58:20;8.13;;;3.45;;
46463;SDS011;32161;48.148;-1.554;2023-07-31T11:00:48;7.90;;;3.25;;
46463;SDS011;32161;48.148;-1.554;2023-07-31T11:03:16;9.65;;;3.38;;
46463;SDS011;32161;48.148;-1.554;2023-07-31T11:05:47;8.30;;;3.35;;
46463;SDS011;32161;48.148;-1.554;2023-07-31T11:08:21;7.35;;;2.88;;
46463;SDS011;32161;48.148;-1.554;2023-07-31T11:10:50;6.72;;;3.40;;
46463;SDS011;32161;48.148;-1.554;2023-07-31T11:13:39;10.75;;;4.25;;
46463;SDS011;32161;48.148;-1.554;2023-07-31T11:16:08;8.38;;;3.03;;
46463;SDS011;32161;48.148;-1.554;2023-07-31T11:18:38;7.72;;;3.10;;
46463;SDS011;32161;48.148;-1.554;2023-07-31T11:21:07;6.78;;;3.33;;
46463;SDS011;32161;48.148;-1.554;2023-07-31T11:23:36;8.80;;;3.15;;
46463;SDS011;32161;48.148;-1.554;2023-07-31T11:26:04;6.88;;;3.08;;
46463;SDS011;32161;48.148;-1.554;2023-07-31T11:28:34;4.40;;;3.05;;
46463;SDS011;32161;48.148;-1.554;2023-07-31T11:31:03;5.13;;;2.80;;
46463;SDS011;32161;48.148;-1.554;2023-07-31T11:33:31;5.78;;;2.80;;
46463;SDS011;32161;48.148;-1.554;2023-07-31T11:35:59;7.15;;;3.38;;
46463;SDS011;32161;48.148;-1.554;2023-07-31T11:38:27;9.25;;;3.17;;
46463;SDS011;32161;48.148;-1.554;2023-07-31T11:40:56;7.15;;;3.38;;
46463;SDS011;32161;48.148;-1.554;2023-07-31T11:43:25;5.60;;;3.13;;
46463;SDS011;32161;48.148;-1.554;2023-07-31T11:45:54;6.40;;;3.25;;
46463;SDS011;32161;48.148;-1.554;2023-07-31T11:48:24;10.45;;;3.50;;
46463;SDS011;32161;48.148;-1.554;2023-07-31T11:50:55;7.13;;;3.40;;
46463;SDS011;32161;48.148;-1.554;2023-07-31T11:53:26;6.22;;;3.03;;
46463;SDS011;32161;48.148;-1.554;2023-07-31T11:55:57;8.35;;;3.65;;
46463;SDS011;32161;48.148;-1.554;2023-07-31T11:58:26;3.75;;;2.60;;
46463;SDS011;32161;48.148;-1.554;2023-07-31T12:00:57;4.07;;;2.38;;
46463;SDS011;32161;48.148;-1.554;2023-07-31T12:03:25;8.88;;;3.47;;
46463;SDS011;32161;48.148;-1.554;2023-07-31T12:05:54;6.85;;;3.60;;
46463;SDS011;32161;48.148;-1.554;2023-07-31T12:08:22;12.13;;;3.60;;
46463;SDS011;32161;48.148;-1.554;2023-07-31T12:10:51;7.05;;;2.88;;
46463;SDS011;32161;48.148;-1.554;2023-07-31T12:13:20;9.50;;;2.95;;
46463;SDS011;32161;48.148;-1.554;2023-07-31T12:15:48;5.95;;;3.67;;
46463;SDS011;32161;48.148;-1.554;2023-07-31T12:18:22;6.25;;;2.97;;
46463;SDS011;32161;48.148;-1.554;2023-07-31T12:23:22;5.35;;;3.33;;
46463;SDS011;32161;48.148;-1.554;2023-07-31T12:26:00;2.67;;;2.42;;
46463;SDS011;32161;48.148;-1.554;2023-07-31T12:28:28;5.18;;;2.63;;
46463;SDS011;32161;48.148;-1.554;2023-07-31T12:30:57;3.88;;;2.63;;
46463;SDS011;32161;48.148;-1.554;2023-07-31T12:33:31;4.03;;;2.30;;
46463;SDS011;32161;48.148;-1.554;2023-07-31T12:36:00;5.70;;;2.45;;
46463;SDS011;32161;48.148;-1.554;2023-07-31T12:38:30;2.85;;;2.10;;
46463;SDS011;32161;48.148;-1.554;2023-07-31T12:40:57;3.10;;;1.85;;
46463;SDS011;32161;48.148;-1.554;2023-07-31T12:43:25;4.43;;;2.67;;
46463;SDS011;32161;48.148;-1.554;2023-07-31T12:45:54;3.78;;;2.30;;
46463;SDS011;32161;48.148;-1.554;2023-07-31T12:48:22;1.85;;;1.75;;
46463;SDS011;32161;48.148;-1.554;2023-07-31T12:50:51;3.75;;;2.03;;
46463;SDS011;32161;48.148;-1.554;2023-07-31T12:53:18;2.58;;;1.98;;
46463;SDS011;32161;48.148;-1.554;2023-07-31T12:55:46;3.88;;;1.88;;
46463;SDS011;32161;48.148;-1.554;2023-07-31T12:58:14;2.70;;;1.70;;
46463;SDS011;32161;48.148;-1.554;2023-07-31T13:00:41;2.40;;;1.33;;
46463;SDS011;32161;48.148;-1.554;2023-07-31T13:03:09;2.60;;;1.20;;
46463;SDS011;32161;48.148;-1.554;2023-07-31T13:05:37;1.95;;;1.50;;
46463;SDS011;32161;48.148;-1.554;2023-07-31T13:08:05;2.22;;;1.50;;
46463;SDS011;32161;48.148;-1.554;2023-07-31T13:10:33;1.70;;;1.60;;
46463;SDS011;32161;48.148;-1.554;2023-07-31T13:13:01;5.28;;;2.60;;
46463;SDS011;32161;48.148;-1.554;2023-07-31T13:15:29;2.63;;;1.40;;
46463;SDS011;32161;48.148;-1.554;2023-07-31T13:17:56;3.30;;;1.40;;
46463;SDS011;32161;48.148;-1.554;2023-07-31T13:20:24;3.03;;;1.60;;
46463;SDS011;32161;48.148;-1.554;2023-07-31T13:22:52;3.10;;;1.80;;
46463;SDS011;32161;48.148;-1.554;2023-07-31T13:25:21;2.05;;;1.50;;
46463;SDS011;32161;48.148;-1.554;2023-07-31T13:27:48;1.40;;;1.35;;
46463;SDS011;32161;48.148;-1.554;2023-07-31T13:30:16;1.65;;;1.55;;
46463;SDS011;32161;48.148;-1.554;2023-07-31T13:32:43;3.13;;;1.48;;
46463;SDS011;32161;48.148;-1.554;2023-07-31T13:35:11;2.75;;;1.50;;
46463;SDS011;32161;48.148;-1.554;2023-07-31T13:37:38;1.70;;;1.60;;
46463;SDS011;32161;48.148;-1.554;2023-07-31T13:40:06;3.50;;;1.30;;
46463;SDS011;32161;48.148;-1.554;2023-07-31T13:42:37;4.10;;;1.45;;
46463;SDS011;32161;48.148;-1.554;2023-07-31T13:45:04;1.10;;;1.10;;
46463;SDS011;32161;48.148;-1.554;2023-07-31T13:47:33;2.55;;;1.20;;
46463;SDS011;32161;48.148;-1.554;2023-07-31T13:50:02;2.83;;;1.30;;
46463;SDS011;32161;48.148;-1.554;2023-07-31T13:52:30;1.92;;;1.20;;
46463;SDS011;32161;48.148;-1.554;2023-07-31T13:54:58;2.17;;;1.20;;
46463;SDS011;32161;48.148;-1.554;2023-07-31T13:57:25;1.27;;;1.10;;
46463;SDS011;32161;48.148;-1.554;2023-07-31T13:59:55;1.58;;;1.38;;
46463;SDS011;32161;48.148;-1.554;2023-07-31T14:02:22;3.60;;;1.25;;
46463;SDS011;32161;48.148;-1.554;2023-07-31T14:04:50;3.78;;;1.70;;
46463;SDS011;32161;48.148;-1.554;2023-07-31T14:07:17;1.42;;;1.33;;
46463;SDS011;32161;48.148;-1.554;2023-07-31T14:09:45;6.05;;;1.58;;
46463;SDS011;32161;48.148;-1.554;2023-07-31T14:12:12;3.40;;;1.30;;
46463;SDS011;32161;48.148;-1.554;2023-07-31T14:14:40;3.70;;;1.30;;
46463;SDS011;32161;48.148;-1.554;2023-07-31T14:17:09;3.67;;;1.20;;
46463;SDS011;32161;48.148;-1.554;2023-07-31T14:19:36;2.50;;;1.85;;
46463;SDS011;32161;48.148;-1.554;2023-07-31T14:22:04;1.20;;;1.20;;
46463;SDS011;32161;48.148;-1.554;2023-07-31T14:24:32;2.33;;;1.10;;
46463;SDS011;32161;48.148;-1.554;2023-07-31T14:26:59;1.27;;;1.10;;
46463;SDS011;32161;48.148;-1.554;2023-07-31T14:29:27;0.95;;;0.90;;
46463;SDS011;32161;48.148;-1.554;2023-07-31T14:31:56;3.05;;;1.13;;
46463;SDS011;32161;48.148;-1.554;2023-07-31T14:34:26;1.70;;;0.82;;
46463;SDS011;32161;48.148;-1.554;2023-07-31T14:36:53;2.75;;;0.93;;
46463;SDS011;32161;48.148;-1.554;2023-07-31T14:39:21;1.23;;;1.02;;
46463;SDS011;32161;48.148;-1.554;2023-07-31T14:41:49;3.85;;;1.15;;